sensor_id;sensor_type;location;lat;lon;timestamp;pressure;altitude;pressure_sealevel;temperature;humidity
60345;BME280;46188;52.324;8.032;2023-08-21T00:02:19;101162.31;;;17.56;100.00
60345;BME280;46188;52.324;8.032;2023-08-21T00:04:44;101165.00;;;17.55;100.00
60345;BME280;46188;52.324;8.032;2023-08-21T00:07:09;101181.88;;;17.55;100.00
60345;BME280;46188;52.324;8.032;2023-08-21T00:09:36;101178.31;;;17.55;100.00
60345;BME280;46188;52.324;8.032;2023-08-21T00:12:01;101173.00;;;17.51;100.00
60345;BME280;46188;52.324;8.032;2023-08-21T00:14:27;101177.47;;;17.49;100.00
60345;BME280;46188;52.324;8.032;2023-08-21T00:16:52;101165.03;;;17.45;100.00
60345;BME280;46188;52.324;8.032;2023-08-21T00:19:17;101176.63;;;17.40;100.00
60345;BME280;46188;52.324;8.032;2023-08-21T00:21:43;101177.53;;;17.36;100.00
60345;BME280;46188;52.324;8.032;2023-08-21T00:24:08;101182.00;;;17.32;100.00
60345;BME280;46188;52.324;8.032;2023-08-21T00:26:33;101180.25;;;17.28;100.00
60345;BME280;46188;52.324;8.032;2023-08-21T00:28:58;101173.16;;;17.25;100.00
60345;BME280;46188;52.324;8.032;2023-08-21T00:31:24;101172.28;;;17.28;100.00
60345;BME280;46188;52.324;8.032;2023-08-21T00:33:49;101174.94;;;17.26;100.00
60345;BME280;46188;52.324;8.032;2023-08-21T00:36:14;101171.34;;;17.27;100.00
60345;BME280;46188;52.324;8.032;2023-08-21T00:38:40;101174.94;;;17.28;100.00
60345;BME280;46188;52.324;8.032;2023-08-21T00:41:05;101176.69;;;17.24;100.00
60345;BME280;46188;52.324;8.032;2023-08-21T00:43:30;101181.16;;;17.25;100.00
60345;BME280;46188;52.324;8.032;2023-08-21T00:45:55;101182.03;;;17.23;100.00
60345;BME280;46188;52.324;8.032;2023-08-21T00:48:21;101182.97;;;17.11;100.00
60345;BME280;46188;52.324;8.032;2023-08-21T00:50:46;101183.94;;;17.01;100.00
60345;BME280;46188;52.324;8.032;2023-08-21T00:53:12;101183.06;;;16.92;100.00
60345;BME280;46188;52.324;8.032;2023-08-21T00:55:38;101189.25;;;16.96;100.00
60345;BME280;46188;52.324;8.032;2023-08-21T00:58:04;101180.41;;;16.94;100.00
60345;BME280;46188;52.324;8.032;2023-08-21T01:00:30;101183.06;;;16.92;100.00
60345;BME280;46188;52.324;8.032;2023-08-21T01:02:55;101182.19;;;16.92;100.00
60345;BME280;46188;52.324;8.032;2023-08-21T01:05:22;101175.06;;;17.02;100.00
60345;BME280;46188;52.324;8.032;2023-08-21T01:08:01;101176.84;;;16.96;100.00
60345;BME280;46188;52.324;8.032;2023-08-21T01:15:58;101171.44;;;17.12;100.00
60345;BME280;46188;52.324;8.032;2023-08-21T01:18:26;101174.97;;;17.20;100.00
60345;BME280;46188;52.324;8.032;2023-08-21T01:20:53;101176.75;;;17.21;100.00
60345;BME280;46188;52.324;8.032;2023-08-21T01:23:37;101175.84;;;17.18;100.00
60345;BME280;46188;52.324;8.032;2023-08-21T01:26:04;101177.63;;;17.20;100.00
60345;BME280;46188;52.324;8.032;2023-08-21T01:28:31;101172.28;;;17.23;100.00
60345;BME280;46188;52.324;8.032;2023-08-21T01:31:08;101169.63;;;17.20;100.00
60345;BME280;46188;52.324;8.032;2023-08-21T01:33:42;101180.28;;;17.23;100.00
60345;BME280;46188;52.324;8.032;2023-08-21T01:36:09;101173.16;;;17.22;100.00
60345;BME280;46188;52.324;8.032;2023-08-21T01:38:35;101173.16;;;17.24;100.00
60345;BME280;46188;52.324;8.032;2023-08-21T01:41:02;101171.34;;;17.27;100.00
60345;BME280;46188;52.324;8.032;2023-08-21T01:43:27;101172.28;;;17.25;100.00
60345;BME280;46188;52.324;8.032;2023-08-21T01:45:53;101175.84;;;17.21;100.00
60345;BME280;46188;52.324;8.032;2023-08-21T01:48:18;101176.72;;;17.23;100.00
60345;BME280;46188;52.324;8.032;2023-08-21T01:50:43;101182.88;;;17.29;100.00
60345;BME280;46188;52.324;8.032;2023-08-21T01:53:08;101182.88;;;17.31;100.00
60345;BME280;46188;52.324;8.032;2023-08-21T01:55:34;101189.97;;;17.37;100.00
60345;BME280;46188;52.324;8.032;2023-08-21T01:57:59;101179.34;;;17.27;100.00
60345;BME280;46188;52.324;8.032;2023-08-21T02:00:24;101178.53;;;17.16;100.00
60345;BME280;46188;52.324;8.032;2023-08-21T02:02:49;101177.63;;;17.22;100.00
60345;BME280;46188;52.324;8.032;2023-08-21T02:05:15;101178.50;;;17.18;100.00
60345;BME280;46188;52.324;8.032;2023-08-21T02:07:40;101171.38;;;17.24;100.00
60345;BME280;46188;52.324;8.032;2023-08-21T02:10:06;101174.09;;;17.20;100.00
60345;BME280;46188;52.324;8.032;2023-08-21T02:12:31;101158.09;;;17.17;100.00
60345;BME280;46188;52.324;8.032;2023-08-21T02:14:56;101163.38;;;17.23;100.00
60345;BME280;46188;52.324;8.032;2023-08-21T02:17:22;101165.16;;;17.24;100.00
60345;BME280;46188;52.324;8.032;2023-08-21T02:19:47;101165.19;;;17.21;100.00
60345;BME280;46188;52.324;8.032;2023-08-21T02:22:12;101167.00;;;17.09;100.00
60345;BME280;46188;52.324;8.032;2023-08-21T02:24:38;101173.28;;;17.01;100.00
60345;BME280;46188;52.324;8.032;2023-08-21T02:27:03;101175.94;;;16.94;100.00
60345;BME280;46188;52.324;8.032;2023-08-21T02:29:28;101171.53;;;16.95;100.00
60345;BME280;46188;52.324;8.032;2023-08-21T02:31:54;101168.88;;;16.96;100.00
60345;BME280;46188;52.324;8.032;2023-08-21T02:34:19;101166.16;;;17.04;100.00
60345;BME280;46188;52.324;8.032;2023-08-21T02:36:44;101161.69;;;17.11;100.00
60345;BME280;46188;52.324;8.032;2023-08-21T02:39:09;101164.34;;;17.11;100.00
60345;BME280;46188;52.324;8.032;2023-08-21T02:41:35;101160.81;;;17.09;100.00
60345;BME280;46188;52.324;8.032;2023-08-21T02:44:00;101175.91;;;17.11;100.00
60345;BME280;46188;52.324;8.032;2023-08-21T02:46:25;101174.97;;;17.14;100.00
60345;BME280;46188;52.324;8.032;2023-08-21T02:48:50;101177.66;;;17.15;100.00
60345;BME280;46188;52.324;8.032;2023-08-21T02:51:15;101167.00;;;17.14;100.00
60345;BME280;46188;52.324;8.032;2023-08-21T02:53:41;101167.88;;;17.14;100.00
60345;BME280;46188;52.324;8.032;2023-08-21T02:56:06;101168.78;;;17.10;100.00
60345;BME280;46188;52.324;8.032;2023-08-21T02:58:31;101175.00;;;17.09;100.00
60345;BME280;46188;52.324;8.032;2023-08-21T03:00:57;101168.78;;;17.10;100.00
60345;BME280;46188;52.324;8.032;2023-08-21T03:03:23;101167.91;;;17.10;100.00
60345;BME280;46188;52.324;8.032;2023-08-21T03:05:48;101178.56;;;17.13;100.00
60345;BME280;46188;52.324;8.032;2023-08-21T03:08:13;101165.25;;;17.11;100.00
60345;BME280;46188;52.324;8.032;2023-08-21T03:10:38;101168.78;;;17.13;100.00
60345;BME280;46188;52.324;8.032;2023-08-21T03:13:04;101163.44;;;17.13;100.00
60345;BME280;46188;52.324;8.032;2023-08-21T03:15:29;101170.53;;;17.18;100.00
60345;BME280;46188;52.324;8.032;2023-08-21T03:17:55;101167.00;;;17.12;100.00
60345;BME280;46188;52.324;8.032;2023-08-21T03:20:20;101168.88;;;16.92;100.00
60345;BME280;46188;52.324;8.032;2023-08-21T03:22:46;101168.00;;;16.82;100.00
60345;BME280;46188;52.324;8.032;2023-08-21T03:25:11;101168.88;;;16.81;100.00
60345;BME280;46188;52.324;8.032;2023-08-21T03:27:37;101164.47;;;16.78;100.00
60345;BME280;46188;52.324;8.032;2023-08-21T03:30:08;101176.00;;;16.76;100.00
60345;BME280;46188;52.324;8.032;2023-08-21T03:32:33;101179.53;;;16.81;100.00
60345;BME280;46188;52.324;8.032;2023-08-21T03:34:58;101174.19;;;16.78;100.00
60345;BME280;46188;52.324;8.032;2023-08-21T03:37:24;101176.03;;;16.68;100.00
60345;BME280;46188;52.324;8.032;2023-08-21T03:39:49;101177.78;;;16.78;100.00
60345;BME280;46188;52.324;8.032;2023-08-21T03:42:14;101178.66;;;16.71;100.00
60345;BME280;46188;52.324;8.032;2023-08-21T03:44:39;101177.84;;;16.60;100.00
60345;BME280;46188;52.324;8.032;2023-08-21T03:47:05;101178.69;;;16.64;100.00
60345;BME280;46188;52.324;8.032;2023-08-21T03:49:30;101172.50;;;16.58;100.00
60345;BME280;46188;52.324;8.032;2023-08-21T03:51:55;101169.81;;;16.68;100.00
60345;BME280;46188;52.324;8.032;2023-08-21T03:54:21;101176.91;;;16.63;100.00
60345;BME280;46188;52.324;8.032;2023-08-21T03:56:46;101168.06;;;16.67;100.00
60345;BME280;46188;52.324;8.032;2023-08-21T03:59:11;101164.47;;;16.74;100.00
60345;BME280;46188;52.324;8.032;2023-08-21T04:01:36;101164.47;;;16.78;100.00
60345;BME280;46188;52.324;8.032;2023-08-21T04:04:02;101171.59;;;16.66;100.00
60345;BME280;46188;52.324;8.032;2023-08-21T04:06:27;101171.59;;;16.58;100.00
60345;BME280;46188;52.324;8.032;2023-08-21T04:08:52;101168.06;;;16.60;100.00
60345;BME280;46188;52.324;8.032;2023-08-21T04:11:17;101168.06;;;16.65;100.00
60345;BME280;46188;52.324;8.032;2023-08-21T04:13:43;101176.91;;;16.63;100.00
60345;BME280;46188;52.324;8.032;2023-08-21T04:16:08;101179.56;;;16.66;100.00
60345;BME280;46188;52.324;8.032;2023-08-21T04:18:34;101185.78;;;16.66;100.00
60345;BME280;46188;52.324;8.032;2023-08-21T04:21:01;101177.78;;;16.68;100.00
60345;BME280;46188;52.324;8.032;2023-08-21T04:23:27;101176.03;;;16.65;100.00
60345;BME280;46188;52.324;8.032;2023-08-21T04:25:52;101178.69;;;16.64;100.00
60345;BME280;46188;52.324;8.032;2023-08-21T04:28:17;101184.03;;;16.51;100.00
60345;BME280;46188;52.324;8.032;2023-08-21T04:30:42;101182.28;;;16.46;100.00
60345;BME280;46188;52.324;8.032;2023-08-21T04:33:08;101178.75;;;16.44;100.00
60345;BME280;46188;52.324;8.032;2023-08-21T04:35:39;101182.28;;;16.41;100.00
60345;BME280;46188;52.324;8.032;2023-08-21T04:38:05;101178.75;;;16.45;100.00
60345;BME280;46188;52.324;8.032;2023-08-21T04:40:30;101183.16;;;16.55;100.00
60345;BME280;46188;52.324;8.032;2023-08-21T04:42:55;101184.03;;;16.57;100.00
60345;BME280;46188;52.324;8.032;2023-08-21T04:45:21;101181.38;;;16.60;100.00
60345;BME280;46188;52.324;8.032;2023-08-21T04:47:46;101180.47;;;16.61;100.00
60345;BME280;46188;52.324;8.032;2023-08-21T04:50:12;101189.34;;;16.57;100.00
60345;BME280;46188;52.324;8.032;2023-08-21T04:52:37;101189.34;;;16.57;100.00
60345;BME280;46188;52.324;8.032;2023-08-21T04:55:02;101185.81;;;16.52;100.00
60345;BME280;46188;52.324;8.032;2023-08-21T04:57:28;101189.38;;;16.51;100.00
60345;BME280;46188;52.324;8.032;2023-08-21T04:59:53;101185.81;;;16.54;100.00
60345;BME280;46188;52.324;8.032;2023-08-21T05:02:18;101188.47;;;16.57;100.00
60345;BME280;46188;52.324;8.032;2023-08-21T05:04:44;101191.13;;;16.58;100.00
60345;BME280;46188;52.324;8.032;2023-08-21T05:07:09;101187.56;;;16.59;100.00
60345;BME280;46188;52.324;8.032;2023-08-21T05:09:34;101194.69;;;16.51;100.00
60345;BME280;46188;52.324;8.032;2023-08-21T05:11:59;101192.03;;;16.56;100.00
60345;BME280;46188;52.324;8.032;2023-08-21T05:14:25;101192.88;;;16.63;100.00
60345;BME280;46188;52.324;8.032;2023-08-21T05:16:51;101192.88;;;16.69;100.00
60345;BME280;46188;52.324;8.032;2023-08-21T05:19:16;101193.75;;;16.65;100.00
60345;BME280;46188;52.324;8.032;2023-08-21T05:21:42;101193.75;;;16.63;100.00
60345;BME280;46188;52.324;8.032;2023-08-21T05:24:07;101195.53;;;16.67;100.00
60345;BME280;46188;52.324;8.032;2023-08-21T05:26:32;101194.66;;;16.68;100.00
60345;BME280;46188;52.324;8.032;2023-08-21T05:28:58;101191.09;;;16.68;100.00
60345;BME280;46188;52.324;8.032;2023-08-21T05:31:23;101195.53;;;16.69;100.00
60345;BME280;46188;52.324;8.032;2023-08-21T05:33:48;101194.63;;;16.71;100.00
60345;BME280;46188;52.324;8.032;2023-08-21T05:36:13;101200.88;;;16.75;100.00
60345;BME280;46188;52.324;8.032;2023-08-21T05:38:39;101200.81;;;16.78;100.00
60345;BME280;46188;52.324;8.032;2023-08-21T05:41:04;101191.97;;;16.85;100.00
60345;BME280;46188;52.324;8.032;2023-08-21T05:43:29;101200.81;;;16.98;100.00
60345;BME280;46188;52.324;8.032;2023-08-21T05:45:55;101204.34;;;17.03;100.00
60345;BME280;46188;52.324;8.032;2023-08-21T05:48:20;101210.53;;;17.10;100.00
60345;BME280;46188;52.324;8.032;2023-08-21T05:50:50;101214.94;;;17.15;100.00
60345;BME280;46188;52.324;8.032;2023-08-21T05:53:16;101211.34;;;17.24;100.00
60345;BME280;46188;52.324;8.032;2023-08-21T05:55:41;101214.91;;;17.28;100.00
60345;BME280;46188;52.324;8.032;2023-08-21T05:58:06;101216.66;;;17.32;100.00
60345;BME280;46188;52.324;8.032;2023-08-21T06:00:33;101222.81;;;17.42;100.00
60345;BME280;46188;52.324;8.032;2023-08-21T06:02:59;101215.69;;;17.42;100.00
60345;BME280;46188;52.324;8.032;2023-08-21T06:05:24;101219.22;;;17.44;100.00
60345;BME280;46188;52.324;8.032;2023-08-21T06:07:50;101222.72;;;17.54;100.00
60345;BME280;46188;52.324;8.032;2023-08-21T06:10:15;101220.91;;;17.65;100.00
60345;BME280;46188;52.324;8.032;2023-08-21T06:12:41;101226.19;;;17.75;100.00
60345;BME280;46188;52.324;8.032;2023-08-21T06:15:07;101229.72;;;17.75;100.00
60345;BME280;46188;52.324;8.032;2023-08-21T06:17:35;101234.16;;;17.79;100.00
60345;BME280;46188;52.324;8.032;2023-08-21T06:20:00;101236.78;;;17.87;100.00
60345;BME280;46188;52.324;8.032;2023-08-21T06:22:26;101232.28;;;17.94;100.00
60345;BME280;46188;52.324;8.032;2023-08-21T06:24:51;101236.72;;;17.99;100.00
60345;BME280;46188;52.324;8.032;2023-08-21T06:27:17;101233.13;;;18.03;100.00
60345;BME280;46188;52.324;8.032;2023-08-21T06:29:42;101236.69;;;18.04;100.00
60345;BME280;46188;52.324;8.032;2023-08-21T06:32:07;101237.56;;;18.04;100.00
60345;BME280;46188;52.324;8.032;2023-08-21T06:34:33;101239.31;;;18.07;100.00
60345;BME280;46188;52.324;8.032;2023-08-21T06:36:58;101233.94;;;18.13;100.00
60345;BME280;46188;52.324;8.032;2023-08-21T06:39:25;101248.13;;;18.15;100.00
60345;BME280;46188;52.324;8.032;2023-08-21T06:41:50;101236.53;;;18.21;100.00
60345;BME280;46188;52.324;8.032;2023-08-21T06:44:15;101239.19;;;18.25;100.00
60345;BME280;46188;52.324;8.032;2023-08-21T06:46:40;101232.88;;;18.31;100.00
60345;BME280;46188;52.324;8.032;2023-08-21T06:49:06;101231.03;;;18.39;100.00
60345;BME280;46188;52.324;8.032;2023-08-21T06:51:31;101239.00;;;18.44;100.00
60345;BME280;46188;52.324;8.032;2023-08-21T06:53:56;101242.59;;;18.41;100.00
60345;BME280;46188;52.324;8.032;2023-08-21T06:56:22;101239.00;;;18.46;100.00
60345;BME280;46188;52.324;8.032;2023-08-21T06:58:47;101246.09;;;18.47;100.00
60345;BME280;46188;52.324;8.032;2023-08-21T07:01:12;101246.94;;;18.52;100.00
60345;BME280;46188;52.324;8.032;2023-08-21T07:03:37;101246.88;;;18.59;100.00
60345;BME280;46188;52.324;8.032;2023-08-21T07:06:03;101243.22;;;18.65;100.00
60345;BME280;46188;52.324;8.032;2023-08-21T07:08:28;101235.16;;;18.73;100.00
60345;BME280;46188;52.324;8.032;2023-08-21T07:10:53;101241.34;;;18.76;100.00
60345;BME280;46188;52.324;8.032;2023-08-21T07:13:19;101248.47;;;18.77;100.00
60345;BME280;46188;52.324;8.032;2023-08-21T07:15:45;101257.38;;;18.76;100.00
60345;BME280;46188;52.324;8.032;2023-08-21T07:18:11;101252.03;;;18.76;100.00
60345;BME280;46188;52.324;8.032;2023-08-21T07:20:36;101250.22;;;18.83;100.00
60345;BME280;46188;52.324;8.032;2023-08-21T07:23:01;101251.13;;;18.84;100.00
60345;BME280;46188;52.324;8.032;2023-08-21T07:25:27;101243.94;;;18.87;100.00
60345;BME280;46188;52.324;8.032;2023-08-21T07:27:53;101251.00;;;18.91;100.00
60345;BME280;46188;52.324;8.032;2023-08-21T07:30:19;101254.53;;;18.95;100.00
60345;BME280;46188;52.324;8.032;2023-08-21T07:32:45;101252.72;;;18.98;100.00
60345;BME280;46188;52.324;8.032;2023-08-21T07:35:11;101252.72;;;19.02;100.00
60345;BME280;46188;52.324;8.032;2023-08-21T07:37:36;101256.22;;;19.05;100.00
60345;BME280;46188;52.324;8.032;2023-08-21T07:40:01;101254.41;;;19.07;100.00
60345;BME280;46188;52.324;8.032;2023-08-21T07:42:27;101257.06;;;19.09;100.00
60345;BME280;46188;52.324;8.032;2023-08-21T07:44:52;101246.34;;;19.10;100.00
60345;BME280;46188;52.324;8.032;2023-08-21T07:47:18;101249.03;;;19.10;100.00
60345;BME280;46188;52.324;8.032;2023-08-21T07:49:43;101258.88;;;19.08;100.00
60345;BME280;46188;52.324;8.032;2023-08-21T07:52:08;101262.44;;;19.06;100.00
60345;BME280;46188;52.324;8.032;2023-08-21T07:54:33;101261.56;;;19.07;100.00
60345;BME280;46188;52.324;8.032;2023-08-21T07:56:59;101261.53;;;19.08;100.00
60345;BME280;46188;52.324;8.032;2023-08-21T07:59:24;101260.56;;;19.12;100.00
60345;BME280;46188;52.324;8.032;2023-08-21T08:01:50;101268.53;;;19.18;100.00
60345;BME280;46188;52.324;8.032;2023-08-21T08:04:15;101267.44;;;19.36;100.00
60345;BME280;46188;52.324;8.032;2023-08-21T08:06:41;101263.53;;;19.59;100.00
60345;BME280;46188;52.324;8.032;2023-08-21T08:09:06;101262.47;;;19.72;100.00
60345;BME280;46188;52.324;8.032;2023-08-21T08:11:32;101258.72;;;19.87;100.00
60345;BME280;46188;52.324;8.032;2023-08-21T08:13:57;101254.03;;;20.02;100.00
60345;BME280;46188;52.324;8.032;2023-08-21T08:16:22;101249.47;;;20.08;100.00
60345;BME280;46188;52.324;8.032;2023-08-21T08:18:47;101246.66;;;20.18;100.00
60345;BME280;46188;52.324;8.032;2023-08-21T08:21:13;101250.19;;;20.20;100.00
60345;BME280;46188;52.324;8.032;2023-08-21T08:23:39;101248.34;;;20.23;100.00
60345;BME280;46188;52.324;8.032;2023-08-21T08:26:04;101241.09;;;20.28;100.00
60345;BME280;46188;52.324;8.032;2023-08-21T08:28:29;101239.28;;;20.31;100.00
60345;BME280;46188;52.324;8.032;2023-08-21T08:30:54;101231.13;;;20.38;100.00
60345;BME280;46188;52.324;8.032;2023-08-21T08:33:20;101236.44;;;20.41;100.00
60345;BME280;46188;52.324;8.032;2023-08-21T08:35:45;101244.44;;;20.43;100.00
60345;BME280;46188;52.324;8.032;2023-08-21T08:38:10;101250.66;;;20.45;100.00
60345;BME280;46188;52.324;8.032;2023-08-21T08:40:43;101245.13;;;20.54;100.00
60345;BME280;46188;52.324;8.032;2023-08-21T08:43:08;101246.66;;;20.71;100.00
60345;BME280;46188;52.324;8.032;2023-08-21T08:45:36;101248.94;;;20.92;100.00
60345;BME280;46188;52.324;8.032;2023-08-21T08:48:02;101242.53;;;20.99;100.00
60345;BME280;46188;52.324;8.032;2023-08-21T08:50:31;101248.63;;;21.08;100.00
60345;BME280;46188;52.324;8.032;2023-08-21T08:52:58;101243.31;;;21.05;100.00
60345;BME280;46188;52.324;8.032;2023-08-21T08:55:24;101232.59;;;21.05;100.00
60345;BME280;46188;52.324;8.032;2023-08-21T08:57:50;101242.50;;;21.01;100.00
60345;BME280;46188;52.324;8.032;2023-08-21T09:00:16;101247.97;;;20.95;100.00
60345;BME280;46188;52.324;8.032;2023-08-21T09:02:41;101242.59;;;20.95;100.00
60345;BME280;46188;52.324;8.032;2023-08-21T09:05:07;101237.22;;;20.96;100.00
60345;BME280;46188;52.324;8.032;2023-08-21T09:07:33;101229.97;;;21.01;100.00
60345;BME280;46188;52.324;8.032;2023-08-21T09:09:58;101230.75;;;21.07;100.00
60345;BME280;46188;52.324;8.032;2023-08-21T09:12:24;101237.78;;;21.14;100.00
60345;BME280;46188;52.324;8.032;2023-08-21T09:14:49;101239.63;;;21.12;100.00
60345;BME280;46188;52.324;8.032;2023-08-21T09:17:14;101236.03;;;21.11;100.00
60345;BME280;46188;52.324;8.032;2023-08-21T09:19:40;101234.38;;;21.06;100.00
60345;BME280;46188;52.324;8.032;2023-08-21T09:22:16;101225.28;;;21.13;100.00
60345;BME280;46188;52.324;8.032;2023-08-21T09:25:18;101239.41;;;21.21;99.24
60345;BME280;46188;52.324;8.032;2023-08-21T09:27:44;101245.59;;;21.25;97.98
60345;BME280;46188;52.324;8.032;2023-08-21T09:30:10;101243.78;;;21.27;95.54
60345;BME280;46188;52.324;8.032;2023-08-21T09:32:55;101244.75;;;21.23;93.10
60345;BME280;46188;52.324;8.032;2023-08-21T09:35:22;101238.44;;;21.25;93.65
60345;BME280;46188;52.324;8.032;2023-08-21T09:37:47;101243.94;;;21.19;93.55
60345;BME280;46188;52.324;8.032;2023-08-21T09:40:13;101246.53;;;21.22;93.17
60345;BME280;46188;52.324;8.032;2023-08-21T09:42:39;101252.84;;;21.19;94.20
60345;BME280;46188;52.324;8.032;2023-08-21T09:45:05;101250.19;;;21.18;93.69
60345;BME280;46188;52.324;8.032;2023-08-21T09:47:31;101240.28;;;21.22;93.79
60345;BME280;46188;52.324;8.032;2023-08-21T09:49:56;101243.69;;;21.30;94.22
60345;BME280;46188;52.324;8.032;2023-08-21T09:52:22;101245.47;;;21.31;94.19
60345;BME280;46188;52.324;8.032;2023-08-21T09:54:48;101243.59;;;21.34;94.54
60345;BME280;46188;52.324;8.032;2023-08-21T09:57:14;101238.19;;;21.36;94.48
60345;BME280;46188;52.324;8.032;2023-08-21T09:59:41;101244.38;;;21.39;94.54
60345;BME280;46188;52.324;8.032;2023-08-21T10:02:09;101239.00;;;21.39;93.71
60345;BME280;46188;52.324;8.032;2023-08-21T10:04:35;101252.47;;;21.36;94.48
60345;BME280;46188;52.324;8.032;2023-08-21T10:07:01;101242.63;;;21.38;93.95
60345;BME280;46188;52.324;8.032;2023-08-21T10:09:29;101241.56;;;21.47;92.30
60345;BME280;46188;52.324;8.032;2023-08-21T10:11:54;101244.09;;;21.55;91.08
60345;BME280;46188;52.324;8.032;2023-08-21T10:14:22;101238.56;;;21.61;90.80
60345;BME280;46188;52.324;8.032;2023-08-21T10:16:51;101233.53;;;21.86;90.04
60345;BME280;46188;52.324;8.032;2023-08-21T10:19:17;101244.56;;;22.11;88.69
60345;BME280;46188;52.324;8.032;2023-08-21T10:21:46;101235.50;;;22.16;87.48
60345;BME280;46188;52.324;8.032;2023-08-21T10:24:12;101231.91;;;22.17;87.08
60345;BME280;46188;52.324;8.032;2023-08-21T10:26:40;101230.28;;;22.09;86.84
60345;BME280;46188;52.324;8.032;2023-08-21T10:29:05;101226.81;;;22.04;86.66
60345;BME280;46188;52.324;8.032;2023-08-21T10:31:36;101228.50;;;22.08;86.80
60345;BME280;46188;52.324;8.032;2023-08-21T10:34:03;101225.53;;;22.19;85.81
60345;BME280;46188;52.324;8.032;2023-08-21T10:39:23;101229.09;;;22.56;81.44
60345;BME280;46188;52.324;8.032;2023-08-21T10:47:15;101231.22;;;22.44;76.09
60345;BME280;46188;52.324;8.032;2023-08-21T10:49:42;101239.41;;;22.40;75.33
60345;BME280;46188;52.324;8.032;2023-08-21T10:52:08;101233.09;;;22.41;74.52
60345;BME280;46188;52.324;8.032;2023-08-21T10:54:47;101229.63;;;22.36;75.12
60345;BME280;46188;52.324;8.032;2023-08-21T10:57:13;101227.81;;;22.38;74.90
60345;BME280;46188;52.324;8.032;2023-08-21T10:59:49;101223.28;;;22.40;74.07
60345;BME280;46188;52.324;8.032;2023-08-21T11:02:14;101223.31;;;22.38;75.25
60345;BME280;46188;52.324;8.032;2023-08-21T11:04:40;101222.56;;;22.33;76.24
60345;BME280;46188;52.324;8.032;2023-08-21T11:07:07;101231.56;;;22.30;76.07
60345;BME280;46188;52.324;8.032;2023-08-21T11:09:35;101233.22;;;22.36;75.79
60345;BME280;46188;52.324;8.032;2023-08-21T11:12:08;101225.13;;;22.38;75.04
60345;BME280;46188;52.324;8.032;2023-08-21T11:14:33;101228.88;;;22.30;74.08
60345;BME280;46188;52.324;8.032;2023-08-21T11:17:00;101227.19;;;22.26;75.66
60345;BME280;46188;52.324;8.032;2023-08-21T11:19:25;101223.53;;;22.29;75.36
60345;BME280;46188;52.324;8.032;2023-08-21T11:21:51;101219.97;;;22.28;75.78
60345;BME280;46188;52.324;8.032;2023-08-21T11:24:16;101226.81;;;22.42;75.54
60345;BME280;46188;52.324;8.032;2023-08-21T11:26:42;101223.53;;;22.63;74.77
60345;BME280;46188;52.324;8.032;2023-08-21T11:29:07;101214.88;;;22.85;73.74
60345;BME280;46188;52.324;8.032;2023-08-21T11:31:32;101217.91;;;23.06;72.03
60345;BME280;46188;52.324;8.032;2023-08-21T11:33:58;101211.22;;;23.20;70.61
60345;BME280;46188;52.324;8.032;2023-08-21T11:36:23;101216.72;;;23.46;69.76
60345;BME280;46188;52.324;8.032;2023-08-21T11:38:58;101221.53;;;23.64;68.57
60345;BME280;46188;52.324;8.032;2023-08-21T11:41:25;101223.50;;;23.59;68.39
60345;BME280;46188;52.324;8.032;2023-08-21T11:43:50;101225.66;;;23.46;68.89
60345;BME280;46188;52.324;8.032;2023-08-21T11:46:17;101219.69;;;23.36;69.51
60345;BME280;46188;52.324;8.032;2023-08-21T11:48:44;101221.31;;;23.42;70.43
60345;BME280;46188;52.324;8.032;2023-08-21T11:51:10;101230.13;;;23.47;69.71
60345;BME280;46188;52.324;8.032;2023-08-21T11:53:42;101223.03;;;23.45;66.99
60345;BME280;46188;52.324;8.032;2023-08-21T11:56:12;101223.16;;;23.40;66.74
60345;BME280;46188;52.324;8.032;2023-08-21T11:58:39;101228.28;;;23.49;67.77
60345;BME280;46188;52.324;8.032;2023-08-21T12:01:05;101229.06;;;23.53;68.63
60345;BME280;46188;52.324;8.032;2023-08-21T12:03:36;101230.78;;;23.55;69.15
60345;BME280;46188;52.324;8.032;2023-08-21T12:06:09;101223.72;;;23.51;68.53
60345;BME280;46188;52.324;8.032;2023-08-21T12:08:36;101226.31;;;23.54;68.08
60345;BME280;46188;52.324;8.032;2023-08-21T12:11:02;101230.84;;;23.54;68.70
60345;BME280;46188;52.324;8.032;2023-08-21T12:13:28;101231.88;;;23.48;69.48
60345;BME280;46188;52.324;8.032;2023-08-21T12:15:53;101225.66;;;23.46;70.48
60345;BME280;46188;52.324;8.032;2023-08-21T12:18:18;101215.84;;;23.45;70.41
60345;BME280;46188;52.324;8.032;2023-08-21T12:20:43;101210.22;;;23.53;70.14
60345;BME280;46188;52.324;8.032;2023-08-21T12:23:09;101210.91;;;23.59;68.71
60345;BME280;46188;52.324;8.032;2023-08-21T12:25:34;101209.84;;;23.65;68.39
60345;BME280;46188;52.324;8.032;2023-08-21T12:27:59;101206.25;;;23.65;68.89
60345;BME280;46188;52.324;8.032;2023-08-21T12:30:25;101211.63;;;23.65;68.89
60345;BME280;46188;52.324;8.032;2023-08-21T12:32:50;101212.63;;;23.62;69.83
60345;BME280;46188;52.324;8.032;2023-08-21T12:35:15;101196.38;;;23.65;69.33
60345;BME280;46188;52.324;8.032;2023-08-21T12:37:40;101197.38;;;23.91;69.78
60345;BME280;46188;52.324;8.032;2023-08-21T12:40:06;101197.75;;;24.07;69.86
60345;BME280;46188;52.324;8.032;2023-08-21T12:42:31;101196.50;;;24.17;69.29
60345;BME280;46188;52.324;8.032;2023-08-21T12:44:57;101187.00;;;24.32;68.34
60345;BME280;46188;52.324;8.032;2023-08-21T12:47:22;101186.50;;;24.46;67.19
60345;BME280;46188;52.324;8.032;2023-08-21T12:49:47;101191.09;;;24.69;66.46
60345;BME280;46188;52.324;8.032;2023-08-21T12:52:12;101196.94;;;24.82;66.77